Time;durP1;ratioP1;P1;durP2;ratioP2;P2;SDS_P1;SDS_P2;PMS_P1;PMS_P2;Temp;Humidity;BMP_temperature;BMP_pressure;BME280_temperature;BME280_humidity;BME280_pressure;Samples;Min_cycle;Max_cycle;Signal;HPM_P1;HPM_P2
2021/09/09 00:00:22;;;;;;;8.18;6.30;;;13.30;99.90;;;;;;5005979;28;20025;-82
2021/09/09 00:02:48;;;;;;;10.20;6.30;;;13.30;99.90;;;;;;4996678;28;20183;-80
2021/09/09 00:05:14;;;;;;;8.68;6.53;;;13.30;99.90;;;;;;5010369;28;20404;-81
2021/09/09 00:07:42;;;;;;;12.90;7.45;;;13.30;99.90;;;;;;5010173;28;20028;-80
2021/09/09 00:10:08;;;;;;;12.15;6.85;;;13.30;99.90;;;;;;4995553;28;20033;-81
2021/09/09 00:12:35;;;;;;;10.18;6.50;;;13.30;99.90;;;;;;4999395;28;20574;-81
2021/09/09 00:15:02;;;;;;;13.32;6.90;;;13.30;99.90;;;;;;5007977;28;20595;-80
2021/09/09 00:17:28;;;;;;;9.73;6.72;;;13.20;99.90;;;;;;4984255;28;20052;-80
2021/09/09 00:19:54;;;;;;;11.43;7.45;;;13.20;99.90;;;;;;5049140;28;20114;-81
2021/09/09 00:22:21;;;;;;;10.02;6.72;;;13.20;99.90;;;;;;4965211;28;20030;-81
2021/09/09 00:24:46;;;;;;;12.60;6.50;;;13.20;99.90;;;;;;4995078;28;20045;-82
2021/09/09 00:27:12;;;;;;;8.23;6.28;;;13.10;99.90;;;;;;4996495;28;20053;-81
2021/09/09 00:29:38;;;;;;;10.88;6.35;;;13.10;99.90;;;;;;4978990;28;20034;-80
2021/09/09 00:32:04;;;;;;;10.25;7.22;;;13.20;99.90;;;;;;5010328;28;20107;-81
2021/09/09 00:34:31;;;;;;;10.55;7.32;;;13.20;99.90;;;;;;5004395;28;20048;-80
2021/09/09 00:36:57;;;;;;;11.38;7.60;;;13.20;99.90;;;;;;5026883;28;20145;-80
2021/09/09 00:39:22;;;;;;;10.13;6.97;;;13.20;99.90;;;;;;4979886;28;20120;-82
2021/09/09 00:41:48;;;;;;;9.45;6.70;;;13.20;99.90;;;;;;5036442;28;20033;-79
2021/09/09 00:44:25;;;;;;;9.93;6.68;;;13.20;99.90;;;;;;5013496;28;20041;-82
2021/09/09 00:47:08;;;;;;;11.88;7.45;;;13.20;99.90;;;;;;5014899;28;20048;-81
2021/09/09 00:49:36;;;;;;;10.38;7.28;;;13.20;99.90;;;;;;5015435;28;20128;-80
2021/09/09 00:52:03;;;;;;;11.85;7.90;;;13.20;99.90;;;;;;4996582;28;20059;-82
2021/09/09 00:54:29;;;;;;;10.55;7.57;;;13.10;99.90;;;;;;5019462;28;20021;-81
2021/09/09 00:56:56;;;;;;;12.02;7.85;;;13.10;99.90;;;;;;5011596;28;20033;-81
2021/09/09 00:59:21;;;;;;;11.65;7.20;;;13.00;99.90;;;;;;5021972;28;20553;-81
2021/09/09 01:01:47;;;;;;;8.40;5.95;;;13.00;99.90;;;;;;5050870;28;20033;-79
2021/09/09 01:04:16;;;;;;;12.05;7.13;;;13.00;99.90;;;;;;5001454;28;20042;-79
2021/09/09 01:06:44;;;;;;;11.75;6.63;;;12.90;99.90;;;;;;5005172;28;20490;-80
2021/09/09 01:09:09;;;;;;;11.10;6.22;;;12.90;99.90;;;;;;5007137;28;20057;-80
2021/09/09 01:11:35;;;;;;;12.40;6.95;;;12.90;99.90;;;;;;5012351;28;20041;-80
2021/09/09 01:14:13;;;;;;;13.30;7.63;;;12.80;99.90;;;;;;4999657;28;20052;-80
2021/09/09 01:16:40;;;;;;;10.35;7.28;;;12.80;99.90;;;;;;4996213;28;20041;-80
2021/09/09 01:19:07;;;;;;;11.63;6.75;;;12.80;99.90;;;;;;4999499;28;20041;-80
2021/09/09 01:21:34;;;;;;;11.25;7.15;;;12.80;99.90;;;;;;5016914;28;20033;-79
2021/09/09 02:44:59;;;;;;;13.40;8.60;;;12.20;99.90;;;;;;5369035;22;20185;-84
2021/09/09 02:47:25;;;;;;;12.88;8.40;;;12.10;99.90;;;;;;5005786;28;20120;-85
2021/09/09 02:49:51;;;;;;;12.00;8.10;;;12.10;99.90;;;;;;4976560;28;20030;-84
2021/09/09 02:52:16;;;;;;;11.95;8.07;;;12.10;99.90;;;;;;4978631;28;20052;-85
2021/09/09 02:54:42;;;;;;;12.68;8.05;;;12.10;99.90;;;;;;4954129;28;20034;-84
2021/09/09 02:57:08;;;;;;;13.10;7.95;;;12.10;99.90;;;;;;5008927;28;20403;-85
2021/09/09 02:59:34;;;;;;;11.60;7.63;;;12.10;99.90;;;;;;4980740;28;20091;-84
2021/09/09 03:01:59;;;;;;;11.57;7.35;;;12.10;99.90;;;;;;4996430;28;20033;-85
2021/09/09 03:04:25;;;;;;;11.70;8.25;;;12.00;99.90;;;;;;4977247;28;20420;-84
2021/09/09 03:06:51;;;;;;;12.02;8.15;;;12.00;99.90;;;;;;4976431;28;20064;-84
2021/09/09 03:09:16;;;;;;;10.02;7.15;;;12.00;99.90;;;;;;4996971;28;20042;-84
2021/09/09 03:11:42;;;;;;;10.63;7.68;;;12.00;99.90;;;;;;4979537;28;20116;-84
2021/09/09 03:14:08;;;;;;;11.48;7.45;;;12.00;99.90;;;;;;4993665;28;20034;-84
2021/09/09 03:16:33;;;;;;;11.02;7.63;;;11.90;99.90;;;;;;5012916;28;20040;-84
2021/09/09 03:18:59;;;;;;;14.60;8.32;;;11.90;99.90;;;;;;4977959;28;20407;-84
2021/09/09 03:21:25;;;;;;;12.02;8.32;;;11.90;99.90;;;;;;5004836;28;20435;-84
2021/09/09 03:23:51;;;;;;;13.07;8.50;;;11.90;99.90;;;;;;5004917;28;20499;-84
2021/09/09 03:26:16;;;;;;;12.85;8.93;;;11.90;99.90;;;;;;4962451;28;20551;-85
2021/09/09 03:28:42;;;;;;;10.60;7.75;;;11.90;99.90;;;;;;5012424;28;20076;-84
2021/09/09 03:31:08;;;;;;;11.40;7.95;;;11.80;99.90;;;;;;4980246;28;20041;-84
2021/09/09 03:33:33;;;;;;;12.13;8.75;;;11.80;99.90;;;;;;5010468;28;20037;-84
2021/09/09 03:35:59;;;;;;;11.23;8.10;;;11.80;99.90;;;;;;5005412;28;20042;-84
2021/09/09 03:38:25;;;;;;;13.15;8.32;;;11.80;99.90;;;;;;4995465;28;20040;-84
2021/09/09 03:40:50;;;;;;;14.10;8.65;;;11.80;99.90;;;;;;4962669;28;20400;-85
2021/09/09 03:43:16;;;;;;;16.30;9.32;;;11.80;99.90;;;;;;4977292;28;20040;-84
2021/09/09 03:45:42;;;;;;;11.85;8.15;;;11.80;99.90;;;;;;4992576;28;20400;-84
2021/09/09 03:48:08;;;;;;;13.02;8.45;;;11.80;99.90;;;;;;4996141;28;20038;-84
2021/09/09 03:50:33;;;;;;;11.38;7.47;;;11.90;99.90;;;;;;4979843;28;20033;-85
2021/09/09 03:52:59;;;;;;;10.68;7.05;;;11.90;99.90;;;;;;4973577;28;20061;-84
2021/09/09 03:55:25;;;;;;;10.57;7.22;;;11.90;99.90;;;;;;4976117;28;20424;-84
2021/09/09 03:57:50;;;;;;;12.50;7.50;;;11.90;99.90;;;;;;4980003;28;20487;-84
2021/09/09 04:00:17;;;;;;;14.15;8.50;;;11.90;99.90;;;;;;5011433;28;20084;-85
2021/09/09 04:02:43;;;;;;;10.88;7.90;;;11.90;99.90;;;;;;4995393;28;20037;-84
2021/09/09 04:05:09;;;;;;;11.35;8.00;;;12.00;99.90;;;;;;4973394;28;20033;-84
2021/09/09 04:07:35;;;;;;;10.55;7.53;;;12.00;99.90;;;;;;5012989;28;20473;-84
2021/09/09 04:10:00;;;;;;;10.50;7.30;;;12.00;99.90;;;;;;4962809;28;20048;-84
2021/09/09 04:12:26;;;;;;;12.00;7.00;;;12.00;99.90;;;;;;4977903;28;20033;-85
2021/09/09 04:14:52;;;;;;;11.05;6.53;;;12.00;99.90;;;;;;4994453;28;20446;-85
2021/09/09 04:17:17;;;;;;;10.55;6.03;;;12.00;99.90;;;;;;4976250;28;20033;-84
2021/09/09 04:19:43;;;;;;;10.93;7.28;;;12.00;99.90;;;;;;4995992;28;20029;-84
2021/09/09 04:22:10;;;;;;;10.57;7.65;;;12.00;99.90;;;;;;4979968;28;20461;-84
2021/09/09 04:24:36;;;;;;;11.70;7.70;;;11.90;99.90;;;;;;4991310;28;20129;-84
2021/09/09 04:27:03;;;;;;;12.35;7.97;;;11.90;99.90;;;;;;4994582;28;20124;-84
2021/09/09 04:29:29;;;;;;;10.20;7.75;;;11.90;99.90;;;;;;4995059;28;20037;-85
2021/09/09 04:31:55;;;;;;;10.75;7.65;;;11.90;99.90;;;;;;4997903;28;20063;-84
2021/09/09 04:34:21;;;;;;;13.75;8.05;;;12.00;99.90;;;;;;4997596;28;20033;-84
2021/09/09 04:36:46;;;;;;;12.38;8.15;;;12.00;99.90;;;;;;4999669;28;20117;-85
2021/09/09 04:39:12;;;;;;;10.10;7.13;;;12.00;99.90;;;;;;4997507;28;20038;-84
2021/09/09 04:41:38;;;;;;;10.10;7.18;;;12.00;99.90;;;;;;4999055;28;20021;-85
2021/09/09 04:44:05;;;;;;;13.23;7.25;;;12.00;99.90;;;;;;4991749;28;20507;-84
2021/09/09 04:46:31;;;;;;;10.15;7.30;;;12.00;99.90;;;;;;4971268;28;20033;-84
2021/09/09 04:48:57;;;;;;;9.02;6.65;;;12.00;99.90;;;;;;4967294;28;20037;-84
2021/09/09 04:51:23;;;;;;;11.95;8.30;;;12.00;99.90;;;;;;5033475;28;20159;-85
2021/09/09 04:53:49;;;;;;;10.50;6.75;;;12.00;99.90;;;;;;4994793;28;20026;-84
2021/09/09 04:56:15;;;;;;;10.95;7.40;;;12.00;99.90;;;;;;4998742;28;20139;-84
2021/09/09 04:58:41;;;;;;;10.45;6.75;;;12.00;99.90;;;;;;4994170;28;20022;-85
2021/09/09 05:01:06;;;;;;;11.52;7.47;;;12.00;99.90;;;;;;5000623;28;20041;-84
2021/09/09 05:03:32;;;;;;;10.63;7.40;;;12.00;99.90;;;;;;5000809;28;20022;-85
2021/09/09 05:05:58;;;;;;;12.77;8.07;;;12.00;99.90;;;;;;4996037;28;20037;-84
2021/09/09 05:08:24;;;;;;;14.65;8.80;;;12.00;99.90;;;;;;5000155;28;20032;-84
2021/09/09 05:10:51;;;;;;;14.77;8.52;;;12.10;99.90;;;;;;5016442;28;20029;-86
2021/09/09 05:13:16;;;;;;;14.02;8.98;;;12.10;99.90;;;;;;5017896;28;20040;-84
2021/09/09 05:15:42;;;;;;;12.65;8.27;;;12.20;99.90;;;;;;4966713;28;20037;-84
2021/09/09 05:18:08;;;;;;;11.55;7.72;;;12.30;99.90;;;;;;4999809;28;20125;-84
2021/09/09 05:20:33;;;;;;;11.80;7.65;;;12.30;99.90;;;;;;4999581;28;20040;-85
2021/09/09 05:22:59;;;;;;;12.48;7.85;;;12.40;99.90;;;;;;4999902;28;20040;-84
2021/09/09 05:25:25;;;;;;;11.32;7.53;;;12.40;99.90;;;;;;4978750;28;20029;-84
2021/09/09 05:27:51;;;;;;;10.80;7.70;;;12.50;99.90;;;;;;4999842;28;20026;-84
2021/09/09 05:30:16;;;;;;;13.15;8.52;;;12.60;99.90;;;;;;5015795;28;20034;-85
2021/09/09 05:32:42;;;;;;;10.50;7.57;;;12.60;99.90;;;;;;4983303;28;20037;-85
2021/09/09 05:35:10;;;;;;;12.15;7.68;;;12.80;99.90;;;;;;5013436;28;20029;-85
2021/09/09 05:37:35;;;;;;;13.85;8.32;;;12.90;99.90;;;;;;5016031;28;20040;-85
2021/09/09 05:40:02;;;;;;;10.57;7.63;;;13.10;99.90;;;;;;4999291;28;20030;-84
2021/09/09 05:42:28;;;;;;;12.48;8.35;;;13.30;99.90;;;;;;4982845;28;20032;-84
2021/09/09 05:44:54;;;;;;;11.32;7.95;;;13.50;99.90;;;;;;4994930;28;20042;-84
2021/09/09 05:47:20;;;;;;;10.80;7.15;;;13.70;99.90;;;;;;4979927;28;20088;-84
2021/09/09 05:49:46;;;;;;;11.50;7.38;;;13.90;99.90;;;;;;4995758;28;20095;-85
2021/09/09 05:52:13;;;;;;;9.43;7.05;;;14.10;99.90;;;;;;4982072;28;20128;-84
2021/09/09 05:54:38;;;;;;;11.82;7.65;;;14.30;99.90;;;;;;4998290;28;20474;-85
2021/09/09 05:57:04;;;;;;;10.98;6.72;;;14.50;99.90;;;;;;4996549;28;20033;-84
2021/09/09 05:59:30;;;;;;;13.68;6.95;;;14.70;99.90;;;;;;4982428;28;20040;-84
2021/09/09 06:01:57;;;;;;;13.25;7.22;;;15.00;99.90;;;;;;4999798;28;20087;-85
2021/09/09 06:04:26;;;;;;;9.50;7.05;;;15.20;99.90;;;;;;4978149;28;20029;-85
2021/09/09 06:06:52;;;;;;;9.80;6.93;;;15.40;99.90;;;;;;4975338;28;20025;-84
2021/09/09 06:09:18;;;;;;;12.02;7.65;;;15.50;99.90;;;;;;4995575;28;20025;-85
2021/09/09 06:11:44;;;;;;;8.73;6.68;;;15.70;99.90;;;;;;4983042;28;20034;-85
2021/09/09 06:14:09;;;;;;;9.80;7.00;;;15.90;99.90;;;;;;4994033;28;20040;-84
2021/09/09 06:16:35;;;;;;;11.35;6.57;;;15.90;99.90;;;;;;5012950;28;20029;-84
2021/09/09 06:19:01;;;;;;;10.45;6.88;;;16.10;99.90;;;;;;4996410;28;20650;-85
2021/09/09 06:21:27;;;;;;;8.98;6.47;;;16.30;99.90;;;;;;4966875;28;20072;-85
2021/09/09 06:23:52;;;;;;;10.73;6.85;;;16.50;99.90;;;;;;4976239;28;20045;-85
2021/09/09 06:26:19;;;;;;;9.30;6.55;;;16.60;99.90;;;;;;4992866;28;20156;-84
2021/09/09 06:28:46;;;;;;;10.80;6.75;;;16.70;99.90;;;;;;5015042;28;20029;-84
2021/09/09 06:31:12;;;;;;;9.88;6.93;;;16.90;99.90;;;;;;4998628;28;20128;-86
2021/09/09 06:33:37;;;;;;;9.57;6.32;;;17.10;99.90;;;;;;5014662;28;20196;-85
2021/09/09 06:36:04;;;;;;;9.65;6.22;;;17.30;99.90;;;;;;5006502;28;20083;-85
2021/09/09 06:38:30;;;;;;;9.68;6.45;;;17.30;99.90;;;;;;5000024;28;20087;-85
2021/09/09 06:40:56;;;;;;;10.52;6.57;;;17.30;99.90;;;;;;4999623;28;20041;-86
2021/09/09 06:43:21;;;;;;;9.57;6.50;;;17.50;99.90;;;;;;4998422;28;20022;-85
2021/09/09 06:45:47;;;;;;;9.95;6.32;;;17.50;99.90;;;;;;4998079;28;20044;-84
2021/09/09 06:48:13;;;;;;;8.68;6.55;;;17.40;99.90;;;;;;5016499;28;20053;-85
2021/09/09 06:50:39;;;;;;;10.40;7.13;;;17.50;99.90;;;;;;4999355;28;20033;-85
2021/09/09 06:53:05;;;;;;;8.93;6.05;;;17.70;99.90;;;;;;4999458;28;20038;-84
2021/09/09 06:55:31;;;;;;;9.27;6.32;;;17.90;99.90;;;;;;4996568;28;20117;-85
2021/09/09 06:57:57;;;;;;;10.57;7.13;;;17.80;99.90;;;;;;4999293;28;20037;-85
2021/09/09 07:00:23;;;;;;;11.27;6.47;;;17.90;99.90;;;;;;4982842;28;20045;-85
2021/09/09 07:02:49;;;;;;;7.22;6.00;;;18.10;99.90;;;;;;4999282;28;20037;-86
2021/09/09 07:05:15;;;;;;;8.55;6.15;;;18.10;99.90;;;;;;4965706;28;20033;-85
2021/09/09 07:07:41;;;;;;;8.35;6.05;;;18.20;99.90;;;;;;4969262;28;20025;-84
2021/09/09 07:10:09;;;;;;;8.38;5.90;;;18.10;99.90;;;;;;5014994;28;20040;-86
2021/09/09 07:12:34;;;;;;;8.07;5.80;;;18.30;99.90;;;;;;4966987;28;20041;-85
2021/09/09 07:15:00;;;;;;;8.23;5.57;;;18.50;99.90;;;;;;4996259;28;20025;-85
2021/09/09 07:17:26;;;;;;;6.07;4.93;;;18.50;99.90;;;;;;4978610;28;20046;-84
2021/09/09 07:19:51;;;;;;;6.85;5.10;;;18.80;99.90;;;;;;4975558;28;20038;-86
2021/09/09 07:22:17;;;;;;;7.55;5.57;;;19.10;99.90;;;;;;4995138;28;20038;-87
2021/09/09 07:24:43;;;;;;;7.85;5.85;;;19.10;99.90;;;;;;4979616;28;20206;-85
2021/09/09 07:27:09;;;;;;;8.63;5.43;;;19.00;99.90;;;;;;4995845;28;20040;-85
2021/09/09 07:29:34;;;;;;;6.75;5.55;;;19.10;99.90;;;;;;4998291;28;20029;-85
2021/09/09 07:32:00;;;;;;;8.02;5.35;;;19.40;99.90;;;;;;4965815;28;20043;-85
2021/09/09 07:34:26;;;;;;;7.57;5.40;;;19.60;99.90;;;;;;4969449;28;20045;-85
2021/09/09 07:36:56;;;;;;;9.07;5.45;;;19.70;99.90;;;;;;5010620;28;20041;-86
2021/09/09 07:39:22;;;;;;;7.55;5.18;;;19.70;99.90;;;;;;5013270;28;20017;-86
2021/09/09 07:41:48;;;;;;;10.13;5.68;;;19.80;99.90;;;;;;5000913;28;20147;-86
2021/09/09 07:44:13;;;;;;;7.72;5.70;;;19.90;99.90;;;;;;4980948;28;20317;-85
2021/09/09 07:46:40;;;;;;;7.15;5.05;;;19.70;99.90;;;;;;4973861;28;20030;-86
2021/09/09 07:49:08;;;;;;;9.75;6.53;;;19.60;99.90;;;;;;4995805;28;20270;-86
2021/09/09 07:51:34;;;;;;;8.73;5.15;;;19.40;99.90;;;;;;4997686;28;20017;-86
2021/09/09 07:54:00;;;;;;;12.20;5.32;;;19.50;99.90;;;;;;4979033;28;20548;-85
2021/09/09 07:56:26;;;;;;;7.45;5.32;;;19.60;99.90;;;;;;4998145;28;20029;-87
2021/09/09 07:58:52;;;;;;;8.18;5.18;;;19.60;99.90;;;;;;4992678;28;20348;-85
2021/09/09 08:01:21;;;;;;;7.30;5.72;;;19.80;99.90;;;;;;4982659;28;20076;-86
2021/09/09 08:03:47;;;;;;;8.25;5.70;;;19.90;99.90;;;;;;5035446;28;20028;-85
2021/09/09 08:06:14;;;;;;;10.73;5.65;;;20.00;99.90;;;;;;5000285;28;20030;-85
2021/09/09 08:08:40;;;;;;;6.70;5.22;;;20.00;99.90;;;;;;4997297;28;20025;-86
2021/09/09 08:11:06;;;;;;;6.68;5.10;;;20.00;99.90;;;;;;5010913;28;20045;-85
2021/09/09 08:13:32;;;;;;;8.20;5.75;;;19.80;99.90;;;;;;4984693;28;20206;-85
2021/09/09 08:15:58;;;;;;;7.97;6.05;;;19.80;99.90;;;;;;5010991;28;20044;-86
2021/09/09 08:18:24;;;;;;;11.00;5.97;;;19.90;99.90;;;;;;5001810;28;20037;-86
2021/09/09 08:20:51;;;;;;;8.70;5.55;;;19.90;99.90;;;;;;4998159;28;20030;-86
2021/09/09 08:23:17;;;;;;;6.85;5.00;;;20.00;99.90;;;;;;5000768;28;20034;-87
2021/09/09 08:25:44;;;;;;;10.55;6.45;;;19.80;99.90;;;;;;4994605;28;20446;-85
2021/09/09 08:28:09;;;;;;;8.70;5.57;;;19.80;99.90;;;;;;4997826;28;20033;-86
2021/09/09 08:30:35;;;;;;;8.38;5.68;;;19.90;99.90;;;;;;4997019;28;20403;-87
2021/09/09 08:33:01;;;;;;;8.30;5.53;;;19.90;99.90;;;;;;4978666;28;20136;-86
2021/09/09 08:35:26;;;;;;;5.93;5.13;;;19.90;99.90;;;;;;4983877;28;20044;-85
2021/09/09 08:37:52;;;;;;;10.18;6.20;;;20.00;99.90;;;;;;4996857;28;20042;-85
2021/09/09 08:40:19;;;;;;;8.98;6.20;;;20.10;99.90;;;;;;4966562;28;20069;-85
2021/09/09 08:42:46;;;;;;;10.32;5.68;;;20.10;99.90;;;;;;4999817;28;20030;-85
2021/09/09 08:45:16;;;;;;;7.45;5.25;;;20.10;99.90;;;;;;4998889;28;20100;-85
2021/09/09 08:47:42;;;;;;;6.97;5.55;;;20.10;99.90;;;;;;4997214;28;20400;-87
2021/09/09 08:50:09;;;;;;;8.48;5.50;;;20.10;99.90;;;;;;5005704;28;20030;-85
2021/09/09 08:52:39;;;;;;;6.28;5.00;;;20.00;99.90;;;;;;4999498;28;20132;-85
2021/09/09 08:55:05;;;;;;;7.55;5.47;;;20.10;99.90;;;;;;4995942;28;20072;-85
2021/09/09 08:57:32;;;;;;;7.40;5.47;;;20.20;99.90;;;;;;4987442;28;20100;-85
2021/09/09 09:00:03;;;;;;;10.27;5.93;;;20.20;99.90;;;;;;4988303;28;20633;-85
2021/09/09 09:02:28;;;;;;;8.23;5.63;;;20.20;99.90;;;;;;5010445;28;20021;-85
2021/09/09 09:05:08;;;;;;;6.90;5.15;;;20.30;99.90;;;;;;5014076;28;20029;-85
2021/09/09 09:07:35;;;;;;;9.95;5.88;;;20.40;99.90;;;;;;4989732;28;20021;-85
2021/09/09 09:10:05;;;;;;;8.73;5.90;;;20.40;99.90;;;;;;4977816;28;20442;-86
2021/09/09 09:12:44;;;;;;;7.78;5.63;;;20.40;99.90;;;;;;4981768;28;20037;-85
2021/09/09 09:15:25;;;;;;;7.30;5.25;;;20.20;99.90;;;;;;4995446;28;20038;-85
2021/09/09 09:18:04;;;;;;;7.65;5.35;;;20.30;99.90;;;;;;4979321;28;20072;-86
2021/09/09 09:20:42;;;;;;;7.18;5.53;;;20.40;99.90;;;;;;5011080;28;20045;-86
2021/09/09 09:23:23;;;;;;;7.50;6.18;;;20.50;99.90;;;;;;4998739;28;20092;-85
2021/09/09 09:25:58;;;;;;;7.20;5.20;;;20.60;99.90;;;;;;4996417;28;20381;-86
2021/09/09 09:28:46;;;;;;;8.13;5.50;;;20.70;99.90;;;;;;4982047;28;20034;-86
2021/09/09 09:31:16;;;;;;;8.98;5.60;;;20.90;99.90;;;;;;5010984;28;20036;-85
2021/09/09 09:33:51;;;;;;;8.88;5.65;;;20.90;99.90;;;;;;4991176;28;20026;-85
2021/09/09 09:36:19;;;;;;;6.72;5.22;;;21.00;99.90;;;;;;4994103;28;20038;-85
2021/09/09 09:38:45;;;;;;;6.50;5.18;;;21.10;99.90;;;;;;4992720;28;20038;-84
2021/09/09 09:41:12;;;;;;;8.50;5.75;;;21.20;99.90;;;;;;5027034;28;20065;-86
2021/09/09 09:43:53;;;;;;;8.18;5.93;;;21.40;99.90;;;;;;4999698;28;20536;-86
2021/09/09 09:46:26;;;;;;;7.93;5.72;;;21.30;99.90;;;;;;4998323;28;20029;-84
2021/09/09 09:48:51;;;;;;;9.52;5.88;;;21.30;99.90;;;;;;4994715;28;20117;-86
2021/09/09 09:51:39;;;;;;;7.57;5.70;;;21.30;99.90;;;;;;4998779;28;20172;-85
2021/09/09 09:54:10;;;;;;;7.85;5.35;;;21.30;99.90;;;;;;5010909;28;20030;-85
2021/09/09 09:56:36;;;;;;;8.77;5.78;;;21.30;99.90;;;;;;4991452;28;20029;-86
2021/09/09 09:59:03;;;;;;;8.82;6.00;;;21.30;99.90;;;;;;4993318;28;20091;-86
2021/09/09 10:01:30;;;;;;;10.02;6.00;;;21.30;99.90;;;;;;4998397;28;20109;-85
2021/09/09 10:04:11;;;;;;;11.88;6.05;;;21.40;99.90;;;;;;5011557;28;20124;-86
2021/09/09 10:06:37;;;;;;;7.80;5.63;;;21.50;99.90;;;;;;4993190;28;20033;-86
2021/09/09 10:09:05;;;;;;;6.85;5.28;;;21.60;99.90;;;;;;4992917;28;20072;-85
2021/09/09 10:11:31;;;;;;;8.88;5.80;;;21.60;99.90;;;;;;5032430;28;20087;-85
2021/09/09 10:13:58;;;;;;;6.25;5.18;;;21.70;99.90;;;;;;4994685;28;20491;-85
2021/09/09 10:16:27;;;;;;;9.75;6.15;;;21.80;99.90;;;;;;5008261;28;20029;-85
2021/09/09 10:18:53;;;;;;;8.60;5.95;;;21.90;99.90;;;;;;4993215;28;20060;-85
2021/09/09 10:21:35;;;;;;;8.55;6.15;;;22.00;99.90;;;;;;5009961;28;20037;-85
2021/09/09 10:24:17;;;;;;;8.55;5.90;;;22.10;99.90;;;;;;4990672;28;20030;-85
2021/09/09 10:26:48;;;;;;;8.85;6.18;;;22.10;99.90;;;;;;5011510;28;20032;-85
2021/09/09 10:30:04;;;;;;;10.23;6.03;;;22.10;99.90;;;;;;4992486;28;20083;-84
2021/09/09 10:32:33;;;;;;;8.05;6.50;;;22.20;99.90;;;;;;4945045;28;20396;-84
2021/09/09 10:35:14;;;;;;;9.00;5.90;;;22.30;99.90;;;;;;4992915;28;20087;-85
2021/09/09 10:37:41;;;;;;;7.65;6.15;;;22.30;99.90;;;;;;4989621;28;20116;-85
2021/09/09 10:40:07;;;;;;;9.13;6.00;;;22.40;99.90;;;;;;5010176;28;20398;-86
2021/09/09 10:42:40;;;;;;;9.95;6.63;;;22.40;99.90;;;;;;4981635;28;20025;-87
2021/09/09 10:45:27;;;;;;;7.93;6.15;;;22.50;99.90;;;;;;5004702;28;20038;-85
2021/09/09 10:47:52;;;;;;;7.88;5.97;;;22.50;99.90;;;;;;4986572;28;20095;-85
2021/09/09 10:50:24;;;;;;;9.32;6.15;;;22.60;99.90;;;;;;4979497;28;20038;-85
2021/09/09 10:53:07;;;;;;;7.75;5.85;;;22.80;99.90;;;;;;4995373;28;20424;-86
2021/09/09 10:55:35;;;;;;;8.30;6.20;;;22.80;99.90;;;;;;5005005;23;20475;-83
2021/09/09 10:58:19;;;;;;;7.05;5.82;;;22.90;99.90;;;;;;4989720;28;20602;-82
2021/09/09 11:00:51;;;;;;;7.78;6.03;;;23.00;99.90;;;;;;4974663;28;20026;-83
2021/09/09 11:03:44;;;;;;;8.50;6.30;;;23.10;99.90;;;;;;5007040;28;20499;-83
2021/09/09 11:06:23;;;;;;;7.28;5.82;;;23.10;99.90;;;;;;4980784;28;20032;-83
2021/09/09 11:08:55;;;;;;;10.52;6.38;;;23.20;99.90;;;;;;5011541;28;20122;-82
2021/09/09 11:11:29;;;;;;;8.98;6.32;;;23.30;99.90;;;;;;5026235;28;20483;-82
2021/09/09 11:14:01;;;;;;;10.00;6.13;;;23.30;99.90;;;;;;5007545;28;20115;-82
2021/09/09 11:16:31;;;;;;;8.50;5.50;;;23.40;99.90;;;;;;5012110;28;20029;-82
2021/09/09 11:18:58;;;;;;;6.85;5.32;;;23.50;99.90;;;;;;4995937;28;20042;-83
2021/09/09 11:21:25;;;;;;;11.50;7.25;;;23.50;99.90;;;;;;5015164;28;20218;-81
2021/09/09 11:24:02;;;;;;;9.02;5.88;;;23.50;99.10;;;;;;5003994;28;20054;-82
2021/09/09 11:26:28;;;;;;;7.63;5.82;;;23.50;99.90;;;;;;4994726;28;20025;-83
2021/09/09 11:28:55;;;;;;;9.52;6.47;;;23.50;99.90;;;;;;5012987;28;20028;-82
2021/09/09 11:31:23;;;;;;;7.97;5.78;;;23.60;99.90;;;;;;4989207;28;20602;-82
2021/09/09 11:34:01;;;;;;;10.65;6.15;;;23.70;99.90;;;;;;5011264;28;20065;-82
2021/09/09 11:36:31;;;;;;;8.40;5.95;;;23.70;99.90;;;;;;4980456;28;20064;-83
2021/09/09 11:38:58;;;;;;;7.97;6.18;;;23.80;99.70;;;;;;4985831;28;20034;-81
2021/09/09 11:41:29;;;;;;;8.60;6.30;;;23.80;99.40;;;;;;5001252;28;20111;-83
2021/09/09 11:43:57;;;;;;;9.00;6.20;;;23.80;98.30;;;;;;5024361;28;20598;-81
2021/09/09 11:46:30;;;;;;;7.55;5.50;;;23.80;99.00;;;;;;5002099;28;20029;-81
2021/09/09 11:49:04;;;;;;;7.40;5.20;;;23.90;98.20;;;;;;4979445;28;20034;-82
2021/09/09 11:51:33;;;;;;;9.55;4.97;;;24.00;99.60;;;;;;5009399;28;20034;-82
2021/09/09 11:53:58;;;;;;;6.93;5.72;;;24.10;98.20;;;;;;5010363;28;20029;-82
2021/09/09 11:56:25;;;;;;;5.95;4.95;;;24.20;96.20;;;;;;5001517;28;20059;-81
2021/09/09 11:58:51;;;;;;;6.03;4.68;;;24.30;97.40;;;;;;4992242;28;20041;-82
2021/09/09 12:01:17;;;;;;;7.85;4.53;;;24.40;98.80;;;;;;5006926;28;20034;-81
2021/09/09 12:03:47;;;;;;;7.13;4.60;;;24.50;97.40;;;;;;4994263;28;20511;-81
2021/09/09 12:06:18;;;;;;;6.75;5.43;;;24.60;99.00;;;;;;4965135;28;20510;-81
2021/09/09 12:08:45;;;;;;;8.18;5.03;;;24.70;95.70;;;;;;4992934;28;20052;-82
2021/09/09 12:11:13;;;;;;;9.40;6.38;;;24.90;96.10;;;;;;4975517;28;20038;-81
2021/09/09 12:13:40;;;;;;;9.68;5.80;;;24.90;94.90;;;;;;5007943;28;20025;-82
2021/09/09 12:16:16;;;;;;;7.25;5.28;;;24.80;94.20;;;;;;5002261;28;20035;-81
2021/09/09 12:18:44;;;;;;;7.15;5.72;;;24.80;95.50;;;;;;4974378;28;20026;-81
2021/09/09 12:21:12;;;;;;;6.50;5.05;;;24.80;95.20;;;;;;4984473;28;20033;-82
2021/09/09 12:23:54;;;;;;;7.85;5.50;;;24.80;93.70;;;;;;5002101;28;20022;-82
2021/09/09 12:26:20;;;;;;;7.75;5.38;;;24.70;94.50;;;;;;4986294;28;20447;-82
2021/09/09 12:28:45;;;;;;;7.22;4.80;;;24.90;95.40;;;;;;4977152;28;20034;-82
2021/09/09 12:31:11;;;;;;;8.02;5.55;;;25.00;97.00;;;;;;5010976;28;20559;-81
2021/09/09 12:33:39;;;;;;;7.50;5.40;;;25.10;97.00;;;;;;4987340;28;20040;-81
2021/09/09 12:36:14;;;;;;;6.72;5.18;;;25.10;94.20;;;;;;4985060;28;20476;-81
2021/09/09 12:38:52;;;;;;;9.20;6.10;;;25.10;94.20;;;;;;5000313;28;20038;-82
2021/09/09 12:41:17;;;;;;;7.90;6.07;;;25.10;94.40;;;;;;5022288;28;20071;-82
2021/09/09 12:44:15;;;;;;;6.20;4.68;;;25.30;94.80;;;;;;5007589;28;20022;-82
2021/09/09 12:46:46;;;;;;;9.10;5.47;;;25.30;97.80;;;;;;4998755;28;20037;-82
2021/09/09 12:49:21;;;;;;;10.13;5.20;;;25.40;96.70;;;;;;5007041;28;20489;-82
2021/09/09 12:51:56;;;;;;;;;;;25.40;96.10;;;;;;5023738;28;20467;-82
2021/09/09 12:54:23;;;;;;;7.95;5.40;;;25.50;98.60;;;;;;5021652;28;19909;-82
2021/09/09 12:56:51;;;;;;;12.70;5.35;;;25.60;98.20;;;;;;4991849;28;20034;-81
2021/09/09 12:59:21;;;;;;;10.25;5.93;;;25.70;96.90;;;;;;5023026;28;20046;-82
2021/09/09 13:01:47;;;;;;;8.02;5.65;;;25.80;97.50;;;;;;5022091;28;20033;-82
2021/09/09 13:04:14;;;;;;;12.60;5.60;;;25.70;93.70;;;;;;5005857;28;20045;-82
2021/09/09 13:06:41;;;;;;;20.35;6.38;;;25.70;94.10;;;;;;4985960;28;20030;-81
2021/09/09 13:09:07;;;;;;;8.60;5.95;;;25.60;96.30;;;;;;5022849;28;20038;-82
2021/09/09 13:11:32;;;;;;;7.47;6.28;;;25.70;96.20;;;;;;4991807;28;20111;-82
2021/09/09 13:13:58;;;;;;;7.90;5.90;;;25.60;94.80;;;;;;4991562;28;20045;-82
2021/09/09 13:16:24;;;;;;;7.30;5.60;;;25.50;95.30;;;;;;4995530;28;20060;-82
2021/09/09 13:18:49;;;;;;;7.72;6.25;;;25.50;96.10;;;;;;4985210;28;20038;-82
2021/09/09 13:21:20;;;;;;;7.00;5.25;;;25.50;94.60;;;;;;5001210;28;20116;-82
2021/09/09 13:23:46;;;;;;;8.85;6.13;;;25.40;96.70;;;;;;5026015;28;20163;-82
2021/09/09 13:26:13;;;;;;;10.68;6.57;;;25.40;97.00;;;;;;4989170;28;20037;-81
2021/09/09 13:28:40;;;;;;;7.97;5.93;;;25.40;94.40;;;;;;5014529;28;20392;-81
2021/09/09 13:31:20;;;;;;;8.68;6.43;;;25.40;94.10;;;;;;5000446;28;20455;-81
2021/09/09 13:33:47;;;;;;;11.15;5.95;;;25.40;96.30;;;;;;5013519;28;20091;-81
2021/09/09 13:36:14;;;;;;;7.53;5.80;;;25.30;96.40;;;;;;4997556;28;20037;-81
2021/09/09 13:38:40;;;;;;;6.10;5.28;;;25.30;97.50;;;;;;5017078;28;20072;-81
2021/09/09 13:41:07;;;;;;;6.03;5.28;;;25.40;98.10;;;;;;5011811;28;20042;-81
2021/09/09 13:43:32;;;;;;;7.22;5.22;;;25.30;98.90;;;;;;5003570;28;20112;-81
2021/09/09 13:45:58;;;;;;;6.82;5.75;;;25.30;96.80;;;;;;4996243;28;20064;-81
2021/09/09 13:48:24;;;;;;;7.90;5.57;;;25.30;98.50;;;;;;4998724;28;20034;-82
2021/09/09 13:50:50;;;;;;;6.68;5.28;;;25.30;99.90;;;;;;5021607;28;20400;-81
2021/09/09 13:53:16;;;;;;;8.73;5.57;;;25.20;99.90;;;;;;5032686;28;20088;-82
2021/09/09 13:55:41;;;;;;;7.60;5.95;;;25.20;99.90;;;;;;5010635;28;20056;-82
2021/09/09 14:00:36;;;;;;;6.68;5.97;;;25.30;99.90;;;;;;4994499;28;20127;-82
2021/09/09 14:03:03;;;;;;;7.97;5.95;;;25.20;97.70;;;;;;5005209;28;20065;-81
2021/09/09 14:05:29;;;;;;;6.25;5.63;;;25.30;99.00;;;;;;5010066;28;20108;-82
2021/09/09 14:07:55;;;;;;;7.80;6.18;;;25.40;99.90;;;;;;5004427;28;20399;-82
2021/09/09 14:10:21;;;;;;;6.63;5.45;;;25.50;99.90;;;;;;5002911;28;20029;-81